createdAt,value
2022-10-21T00:00:59.642Z,45.65
2022-10-21T00:03:29.439Z,45.88
2022-10-21T00:05:56.944Z,44.83
2022-10-21T00:08:24.719Z,44.35
2022-10-21T00:10:55.682Z,45.92
2022-10-21T00:13:23.137Z,45.17
2022-10-21T00:16:00.678Z,45.83
2022-10-21T00:18:28.499Z,45.92
2022-10-21T00:20:55.743Z,46.67
2022-10-21T00:23:22.977Z,45.47
2022-10-21T00:25:50.229Z,45.85
2022-10-21T00:28:17.420Z,45.35
2022-10-21T00:30:45.172Z,44.53
2022-10-21T00:33:13.243Z,44.35
2022-10-21T00:35:40.543Z,45.95
2022-10-21T00:38:07.956Z,45.28
2022-10-21T00:40:35.289Z,45.72
2022-10-21T00:43:02.527Z,45.70
2022-10-21T00:45:30.505Z,46.28
2022-10-21T00:48:09.767Z,45.50
2022-10-21T00:50:42.701Z,44.10
2022-10-21T00:53:11.672Z,45.45
2022-10-21T00:55:40.969Z,46.70
2022-10-21T00:58:08.775Z,43.78
2022-10-21T01:00:36.058Z,42.92
2022-10-21T01:03:15.577Z,44.65
2022-10-21T01:05:43.067Z,44.72
2022-10-21T01:08:10.284Z,44.38
2022-10-21T01:10:38.544Z,44.88
2022-10-21T01:13:14.728Z,44.13
2022-10-21T01:15:46.056Z,44.75
2022-10-21T01:18:13.280Z,44.13
2022-10-21T01:20:58.636Z,44.25
2022-10-21T01:23:28.760Z,42.83
2022-10-21T01:25:58.845Z,43.10
2022-10-21T01:28:37.896Z,45.05
2022-10-21T01:31:16.631Z,43.45
2022-10-21T01:33:48.080Z,44.13
2022-10-21T01:36:24.332Z,44.00
2022-10-21T01:39:03.629Z,43.75
2022-10-21T01:41:33.731Z,43.67
2022-10-21T01:44:06.792Z,43.45
2022-10-21T01:46:49.779Z,42.78
2022-10-21T01:49:20.808Z,43.97
2022-10-21T01:51:48.609Z,42.88
2022-10-21T01:54:19.859Z,45.20
2022-10-21T01:56:47.484Z,43.13
2022-10-21T01:59:15.114Z,43.10
2022-10-21T02:01:43.999Z,44.22
2022-10-21T02:04:12.141Z,43.03
2022-10-21T02:06:39.413Z,44.20
2022-10-21T02:09:06.746Z,42.58
2022-10-21T02:11:36.064Z,42.47
2022-10-21T02:14:04.997Z,42.33
2022-10-21T02:16:33.542Z,44.00
2022-10-21T02:19:01.487Z,42.10
2022-10-21T02:21:30.898Z,42.38
2022-10-21T02:23:58.267Z,43.25
2022-10-21T02:26:26.871Z,42.28
2022-10-21T02:28:55.430Z,42.90
2022-10-21T02:31:22.611Z,42.22
2022-10-21T02:33:53.031Z,41.55
2022-10-21T02:36:38.691Z,42.15
2022-10-21T02:39:13.477Z,40.55
2022-10-21T02:41:41.427Z,39.92
2022-10-21T02:44:09.301Z,42.25
2022-10-21T02:46:41.539Z,41.58
2022-10-21T02:49:08.809Z,41.97
2022-10-21T02:51:36.237Z,42.70
2022-10-21T02:54:03.749Z,41.33
2022-10-21T02:56:31.055Z,41.80
2022-10-21T02:58:58.327Z,39.95
2022-10-21T03:01:25.571Z,40.67
2022-10-21T03:03:52.836Z,41.95
2022-10-21T03:06:20.636Z,40.35
2022-10-21T03:08:47.933Z,39.25
2022-10-21T03:11:15.192Z,38.45
2022-10-21T03:13:42.431Z,40.33
2022-10-21T03:16:09.773Z,40.97
2022-10-21T03:18:37.092Z,39.67
2022-10-21T03:21:04.395Z,41.70
2022-10-21T03:23:31.612Z,40.08
2022-10-21T03:25:59.008Z,41.22
2022-10-21T03:28:26.309Z,40.08
2022-10-21T03:30:54.957Z,39.78
2022-10-21T03:33:22.198Z,38.15
2022-10-21T03:35:49.446Z,41.05
2022-10-21T03:38:16.684Z,39.22
2022-10-21T03:40:43.900Z,37.65
2022-10-21T03:43:11.103Z,39.05
2022-10-21T03:45:38.336Z,38.65
2022-10-21T03:48:05.616Z,38.47
2022-10-21T03:50:32.863Z,37.83
2022-10-21T03:53:02.381Z,36.05
2022-10-21T03:55:33.874Z,37.17
2022-10-21T03:58:01.212Z,36.05
2022-10-21T04:00:31.614Z,34.35
2022-10-21T04:02:59.088Z,36.28
2022-10-21T04:05:26.274Z,36.55
2022-10-21T04:07:53.468Z,37.10
2022-10-21T04:10:21.040Z,36.30
2022-10-21T04:12:48.298Z,35.40
2022-10-21T04:15:15.796Z,35.22
2022-10-21T04:17:43.080Z,35.10
2022-10-21T04:20:11.295Z,35.90
2022-10-21T04:22:38.827Z,35.45
2022-10-21T04:25:06.721Z,35.22
2022-10-21T04:27:33.985Z,35.63
2022-10-21T04:30:01.227Z,37.30
2022-10-21T04:32:28.410Z,35.97
2022-10-21T04:34:55.670Z,35.45
2022-10-21T04:37:22.899Z,36.70
2022-10-21T04:39:50.161Z,36.05
2022-10-21T04:42:17.420Z,38.53
2022-10-21T04:44:44.715Z,38.72
2022-10-21T04:47:11.942Z,36.65
2022-10-21T04:49:39.146Z,38.08
2022-10-21T04:52:06.376Z,38.45
2022-10-21T04:54:33.620Z,37.17
2022-10-21T04:57:00.851Z,36.70
2022-10-21T04:59:28.159Z,35.38
2022-10-21T05:01:55.395Z,37.25
2022-10-21T05:04:22.673Z,38.55
2022-10-21T05:06:49.910Z,39.67
2022-10-21T05:09:17.334Z,38.05
2022-10-21T05:11:44.603Z,38.10
2022-10-21T05:14:11.819Z,38.83
2022-10-21T05:16:39.055Z,40.22
2022-10-21T05:19:06.421Z,37.70
2022-10-21T05:21:33.770Z,36.83
2022-10-21T05:24:01.112Z,38.45
2022-10-21T05:26:29.139Z,37.40
2022-10-21T05:28:56.373Z,36.00
2022-10-21T05:31:23.609Z,37.80
2022-10-21T05:33:50.807Z,38.15
2022-10-21T05:36:20.524Z,37.35
2022-10-21T05:38:50.509Z,38.25
2022-10-21T05:41:17.752Z,38.08
2022-10-21T05:43:45.044Z,40.45
2022-10-21T05:46:12.475Z,38.47
2022-10-21T05:48:39.732Z,39.80
2022-10-21T05:51:08.518Z,40.47
2022-10-21T05:53:36.083Z,39.05
2022-10-21T05:56:04.843Z,40.58
2022-10-21T05:58:32.626Z,39.33
2022-10-21T06:01:00.023Z,39.85
2022-10-21T06:03:32.367Z,40.17
2022-10-21T06:06:03.655Z,38.75
2022-10-21T06:08:32.028Z,40.42
2022-10-21T06:11:07.289Z,39.88
2022-10-21T06:13:34.930Z,39.33
2022-10-21T06:16:02.655Z,39.17
2022-10-21T06:18:30.084Z,39.50
2022-10-21T06:20:57.295Z,40.17
2022-10-21T06:23:24.598Z,42.63
2022-10-21T06:26:02.196Z,40.95
2022-10-21T06:28:30.176Z,41.55
2022-10-21T06:30:57.614Z,41.00
2022-10-21T06:33:27.156Z,39.10
2022-10-21T06:35:55.181Z,41.75
2022-10-21T06:38:22.560Z,40.25
2022-10-21T06:40:49.800Z,40.85
2022-10-21T06:43:17.338Z,40.63
2022-10-21T06:45:44.678Z,40.97
2022-10-21T06:48:13.610Z,39.58
2022-10-21T06:50:41.103Z,42.50
2022-10-21T06:53:08.411Z,41.15
2022-10-21T06:55:35.976Z,41.63
2022-10-21T06:58:03.269Z,40.55
2022-10-21T07:03:02.639Z,41.35
2022-10-21T07:05:29.829Z,40.60
2022-10-21T07:07:57.634Z,40.80
2022-10-21T07:10:24.974Z,41.90
2022-10-21T07:12:52.211Z,41.13
2022-10-21T07:15:19.468Z,39.47
2022-10-21T07:17:46.757Z,41.10
2022-10-21T07:20:14.049Z,39.42
2022-10-21T07:22:41.268Z,39.38
2022-10-21T07:25:08.659Z,38.65
2022-10-21T07:27:36.089Z,39.42
2022-10-21T07:30:03.567Z,38.05
2022-10-21T07:32:30.907Z,39.25
2022-10-21T07:34:58.156Z,39.10
2022-10-21T07:37:25.363Z,39.90
2022-10-21T07:39:52.581Z,38.22
2022-10-21T07:42:20.126Z,37.58
2022-10-21T07:44:47.368Z,37.20
2022-10-21T07:47:14.567Z,37.63
2022-10-21T07:49:41.824Z,35.97
2022-10-21T07:52:09.095Z,37.40
2022-10-21T07:54:36.435Z,35.97
2022-10-21T07:57:03.702Z,41.83
2022-10-21T07:59:30.944Z,38.67
2022-10-21T08:01:58.135Z,37.45
2022-10-21T08:04:29.782Z,35.92
2022-10-21T08:09:24.477Z,33.17
2022-10-21T08:11:51.712Z,33.05
2022-10-21T08:14:19.082Z,31.23
2022-10-21T08:16:46.433Z,30.42
2022-10-21T08:19:21.216Z,27.77
2022-10-21T08:21:48.576Z,24.67
2022-10-21T08:24:16.045Z,23.13
2022-10-21T08:26:43.274Z,23.75
2022-10-21T08:29:10.535Z,27.90
2022-10-21T08:31:37.914Z,23.63
2022-10-21T08:34:05.156Z,24.17
2022-10-21T08:36:32.414Z,22.23
2022-10-21T08:38:59.783Z,21.75
2022-10-21T08:41:29.731Z,20.65
2022-10-21T08:44:18.209Z,19.60
2022-10-21T08:46:52.706Z,17.65
2022-10-21T08:49:30.847Z,17.40
2022-10-21T08:52:01.450Z,16.73
2022-10-21T08:54:49.614Z,15.98
2022-10-21T08:57:17.181Z,16.80
2022-10-21T08:59:44.414Z,16.00
2022-10-21T09:02:14.420Z,15.57
2022-10-21T09:04:56.716Z,16.20
2022-10-21T09:07:32.773Z,15.73
2022-10-21T09:09:59.931Z,19.95
2022-10-21T09:12:33.624Z,14.85
2022-10-21T09:15:08.634Z,14.77
2022-10-21T09:18:16.844Z,15.02
2022-10-21T09:20:46.710Z,14.57
2022-10-21T09:23:16.860Z,14.65
2022-10-21T09:25:56.753Z,14.48
2022-10-21T09:28:25.539Z,14.07
2022-10-21T09:30:53.473Z,14.55
2022-10-21T09:33:24.099Z,14.73
2022-10-21T09:35:58.882Z,14.77
2022-10-21T09:38:29.118Z,14.73
2022-10-21T09:41:03.097Z,14.55
2022-10-21T09:43:31.368Z,15.43
2022-10-21T09:45:59.000Z,15.50
2022-10-21T09:48:26.295Z,15.43
2022-10-21T09:50:55.236Z,15.48
2022-10-21T09:53:28.036Z,15.80
2022-10-21T09:56:01.900Z,15.15
2022-10-21T09:58:37.971Z,16.45
2022-10-21T10:01:08.028Z,17.77
2022-10-21T10:03:35.244Z,15.60
2022-10-21T10:06:03.085Z,16.02
2022-10-21T10:08:32.402Z,16.73
2022-10-21T10:11:13.026Z,15.82
2022-10-21T10:13:47.488Z,16.42
2022-10-21T10:16:14.901Z,16.27
2022-10-21T10:18:42.863Z,15.88
2022-10-21T10:21:14.068Z,15.88
2022-10-21T10:23:46.267Z,17.02
2022-10-21T10:26:32.445Z,16.58
2022-10-21T10:29:03.652Z,16.58
2022-10-21T10:31:34.922Z,15.93
2022-10-21T10:34:04.992Z,16.05
2022-10-21T10:36:35.102Z,17.20
2022-10-21T10:39:03.047Z,16.77
2022-10-21T10:41:32.278Z,17.48
2022-10-21T10:43:59.526Z,17.63
2022-10-21T10:46:29.666Z,16.10
2022-10-21T10:48:58.992Z,16.85
2022-10-21T10:51:28.689Z,16.08
2022-10-21T10:54:01.983Z,14.18
2022-10-21T10:56:49.608Z,13.93
2022-10-21T10:59:35.752Z,14.00
2022-10-21T11:02:12.255Z,14.38
2022-10-21T11:04:39.463Z,12.95
2022-10-21T11:07:12.556Z,13.50
2022-10-21T11:09:39.885Z,12.70
2022-10-21T11:12:12.479Z,13.00
2022-10-21T11:14:39.701Z,13.18
2022-10-21T11:17:06.959Z,13.73
2022-10-21T11:19:46.446Z,13.95
2022-10-21T11:22:36.755Z,13.88
2022-10-21T11:25:05.210Z,14.77
2022-10-21T11:27:35.192Z,12.70
2022-10-21T11:30:10.788Z,13.48
2022-10-21T11:32:58.545Z,13.55
2022-10-21T11:35:28.718Z,11.15
2022-10-21T11:37:55.942Z,13.38
2022-10-21T11:40:23.196Z,16.67
2022-10-21T11:42:53.715Z,13.82
2022-10-21T11:45:39.107Z,14.43
2022-10-21T11:48:16.290Z,12.75
2022-10-21T11:50:43.469Z,13.35
2022-10-21T11:53:14.345Z,12.55
2022-10-21T11:55:44.287Z,13.02
2022-10-21T11:58:11.465Z,13.45
2022-10-21T12:00:46.327Z,13.52
2022-10-21T12:03:28.592Z,13.50
2022-10-21T12:06:01.164Z,14.00
2022-10-21T12:08:31.572Z,12.10
2022-10-21T12:11:02.660Z,12.88
2022-10-21T12:13:38.853Z,12.70
2022-10-21T12:16:08.335Z,12.48
2022-10-21T12:18:38.302Z,12.23
2022-10-21T12:21:07.323Z,11.50
2022-10-21T12:23:34.707Z,11.93
2022-10-21T12:26:05.149Z,12.23
2022-10-21T12:28:32.627Z,12.50
2022-10-21T12:31:04.106Z,11.93
2022-10-21T12:33:48.579Z,12.65
2022-10-21T12:36:20.893Z,11.73
2022-10-21T12:38:48.501Z,12.65
2022-10-21T12:41:24.657Z,12.13
2022-10-21T12:44:03.903Z,12.18
2022-10-21T12:46:41.981Z,12.23
2022-10-21T12:49:24.209Z,12.43
2022-10-21T12:52:18.300Z,11.30
2022-10-21T12:54:59.280Z,11.23
2022-10-21T12:57:32.366Z,11.52
2022-10-21T13:00:17.765Z,12.02
2022-10-21T13:03:03.946Z,11.90
2022-10-21T13:05:51.391Z,12.38
2022-10-21T13:08:24.279Z,11.65
2022-10-21T13:11:06.526Z,11.38
2022-10-21T13:13:37.929Z,12.55
2022-10-21T13:16:20.065Z,12.95
2022-10-21T13:18:53.265Z,10.80
2022-10-21T13:21:23.193Z,16.52
2022-10-21T13:23:52.102Z,16.52
2022-10-21T13:26:20.840Z,11.75
2022-10-21T13:29:12.659Z,10.02
2022-10-21T13:31:43.428Z,10.95
2022-10-21T13:34:29.414Z,11.40
2022-10-21T13:36:57.359Z,10.63
2022-10-21T13:39:28.341Z,10.85
2022-10-21T13:41:57.603Z,10.88
2022-10-21T13:44:28.178Z,11.20
2022-10-21T13:46:55.451Z,11.18
2022-10-21T13:49:27.371Z,11.32
2022-10-21T13:51:54.640Z,11.95
2022-10-21T13:54:21.896Z,10.80
2022-10-21T13:56:49.189Z,11.63
2022-10-21T13:59:24.071Z,11.38
2022-10-21T14:01:55.495Z,11.93
2022-10-21T14:04:23.956Z,11.65
2022-10-21T14:06:57.689Z,10.15
2022-10-21T14:09:28.200Z,11.02
2022-10-21T14:12:03.522Z,10.60
2022-10-21T14:14:31.390Z,11.15
2022-10-21T14:17:10.035Z,44.65
2022-10-21T14:19:38.890Z,92.47
2022-10-21T14:22:09.883Z,15.35
2022-10-21T14:24:41.718Z,12.90
2022-10-21T14:27:12.715Z,12.27
2022-10-21T14:29:41.390Z,12.57
2022-10-21T14:32:08.720Z,13.68
2022-10-21T14:34:36.706Z,13.00
2022-10-21T14:37:09.568Z,14.20
2022-10-21T14:39:39.615Z,15.80
2022-10-21T14:42:17.496Z,15.32
2022-10-21T14:44:45.469Z,14.93
2022-10-21T14:47:19.625Z,16.08
2022-10-21T14:49:48.379Z,15.88
2022-10-21T14:52:18.950Z,14.90
2022-10-21T14:54:48.170Z,16.42
2022-10-21T14:57:29.194Z,22.75
2022-10-21T14:59:56.703Z,35.95
2022-10-21T15:02:28.934Z,17.10
2022-10-21T15:04:57.353Z,17.17
2022-10-21T15:07:24.537Z,17.65
2022-10-21T15:10:00.863Z,16.70
2022-10-21T15:12:32.414Z,16.25
2022-10-21T15:17:26.732Z,17.42
2022-10-21T15:19:54.032Z,18.63
2022-10-21T15:22:25.782Z,18.45
2022-10-21T15:24:54.095Z,18.70
2022-10-21T15:27:32.819Z,18.65
2022-10-21T15:30:11.343Z,19.95
2022-10-21T15:32:38.575Z,19.23
2022-10-21T15:35:21.648Z,20.13
2022-10-21T15:37:49.751Z,20.40
2022-10-21T15:40:18.128Z,21.38
2022-10-21T15:42:45.990Z,20.20
2022-10-21T15:45:17.495Z,20.23
2022-10-21T15:47:44.817Z,20.13
2022-10-21T15:50:15.757Z,20.95
2022-10-21T15:52:43.012Z,28.30
2022-10-21T15:55:10.640Z,36.92
2022-10-21T15:57:38.928Z,25.83
2022-10-21T16:00:17.915Z,21.42
2022-10-21T16:02:45.523Z,20.25
2022-10-21T16:05:12.775Z,21.00
2022-10-21T16:07:40.482Z,20.00
2022-10-21T16:10:17.243Z,21.45
2022-10-21T16:12:44.940Z,21.85
2022-10-21T16:15:12.321Z,20.20
2022-10-21T16:17:40.693Z,20.63
2022-10-21T16:20:08.281Z,21.33
2022-10-21T16:22:35.601Z,19.80
2022-10-21T16:25:02.878Z,19.98
2022-10-21T16:27:43.945Z,19.63
2022-10-21T16:30:17.373Z,20.10
2022-10-21T16:32:44.708Z,19.70
2022-10-21T16:35:13.339Z,19.90
2022-10-21T16:37:41.111Z,19.98
2022-10-21T16:40:14.720Z,19.58
2022-10-21T16:42:42.267Z,33.88
2022-10-21T16:45:09.761Z,53.03
2022-10-21T16:47:37.798Z,22.52
2022-10-21T16:50:05.741Z,20.85
2022-10-21T16:52:34.902Z,19.65
2022-10-21T16:55:02.111Z,19.35
2022-10-21T16:57:29.349Z,20.63
2022-10-21T16:59:56.583Z,19.58
2022-10-21T17:02:23.780Z,18.88
2022-10-21T17:04:51.023Z,19.02
2022-10-21T17:07:18.321Z,19.33
2022-10-21T17:09:45.563Z,18.25
2022-10-21T17:12:12.782Z,18.13
2022-10-21T17:14:40.006Z,17.55
2022-10-21T17:17:07.379Z,17.88
2022-10-21T17:19:34.634Z,18.05
2022-10-21T17:22:01.859Z,17.45
2022-10-21T17:24:29.223Z,18.23
2022-10-21T17:26:57.487Z,17.80
2022-10-21T17:29:24.860Z,17.60
2022-10-21T17:31:52.116Z,18.33
2022-10-21T17:34:26.918Z,18.65
2022-10-21T17:36:54.211Z,17.45
2022-10-21T17:39:21.459Z,18.38
2022-10-21T17:41:48.759Z,18.13
2022-10-21T17:44:16.023Z,17.75
2022-10-21T17:46:43.284Z,18.90
2022-10-21T17:49:10.705Z,40.03
2022-10-21T17:51:37.907Z,26.58
2022-10-21T17:54:05.251Z,17.40
2022-10-21T17:56:32.496Z,16.77
2022-10-21T17:59:01.280Z,18.08
2022-10-21T18:01:28.817Z,16.08
2022-10-21T18:03:58.550Z,17.33
2022-10-21T18:06:25.820Z,16.88
2022-10-21T18:08:53.127Z,16.30
2022-10-21T18:11:21.386Z,16.10
2022-10-21T18:13:53.464Z,15.85
2022-10-21T18:16:22.822Z,16.27
2022-10-21T18:18:50.173Z,15.65
2022-10-21T18:21:19.591Z,14.27
2022-10-21T18:23:47.681Z,14.27
2022-10-21T18:26:16.347Z,13.77
2022-10-21T18:28:43.568Z,13.85
2022-10-21T18:31:12.818Z,12.52
2022-10-21T18:33:40.052Z,12.68
2022-10-21T18:36:08.471Z,20.58
2022-10-21T18:38:35.748Z,24.92
2022-10-21T18:41:19.438Z,15.23
2022-10-21T18:43:48.495Z,13.23
2022-10-21T18:46:15.720Z,13.27
2022-10-21T18:48:42.974Z,12.95
2022-10-21T18:51:11.256Z,12.48
2022-10-21T18:53:40.781Z,12.95
2022-10-21T18:56:08.892Z,11.93
2022-10-21T18:58:37.547Z,12.50
2022-10-21T19:01:05.154Z,13.63
2022-10-21T19:03:32.804Z,12.60
2022-10-21T19:06:16.309Z,12.25
2022-10-21T19:08:43.818Z,12.82
2022-10-21T19:11:11.142Z,13.65
2022-10-21T19:13:38.430Z,13.93
2022-10-21T19:16:05.804Z,26.40
2022-10-21T19:18:33.127Z,40.78
2022-10-21T19:21:00.368Z,17.02
2022-10-21T19:23:27.949Z,14.35
2022-10-21T19:25:55.191Z,12.98
2022-10-21T19:28:22.409Z,25.33
2022-10-21T19:30:49.608Z,29.25
2022-10-21T19:33:16.931Z,19.17
2022-10-21T19:35:44.140Z,14.90
2022-10-21T19:38:20.469Z,13.20
2022-10-21T19:40:53.669Z,13.13
2022-10-21T19:43:20.867Z,13.40
2022-10-21T19:45:48.310Z,13.82
2022-10-21T19:48:16.441Z,13.63
2022-10-21T19:50:47.008Z,14.38
2022-10-21T19:53:14.203Z,13.85
2022-10-21T19:55:41.675Z,14.45
2022-10-21T19:58:08.965Z,14.10
2022-10-21T20:00:36.649Z,15.00
2022-10-21T20:03:04.743Z,15.20
2022-10-21T20:05:34.438Z,15.80
2022-10-21T20:08:01.683Z,15.88
2022-10-21T20:10:28.996Z,15.38
2022-10-21T20:12:56.615Z,15.73
2022-10-21T20:15:23.918Z,16.55
2022-10-21T20:17:51.408Z,16.63
2022-10-21T20:20:18.661Z,16.85
2022-10-21T20:22:45.965Z,17.05
2022-10-21T20:25:13.440Z,16.77
2022-10-21T20:27:40.991Z,16.88
2022-10-21T20:30:08.846Z,16.67
2022-10-21T20:32:36.114Z,18.75
2022-10-21T20:35:03.401Z,18.95
2022-10-21T20:37:30.593Z,19.90
2022-10-21T20:39:57.824Z,19.45
2022-10-21T20:42:25.064Z,20.35
2022-10-21T20:44:52.302Z,21.35
2022-10-21T20:47:19.518Z,21.35
2022-10-21T20:49:46.760Z,21.88
2022-10-21T20:52:14.038Z,22.33
2022-10-21T20:54:41.331Z,22.05
2022-10-21T20:57:08.588Z,23.00
2022-10-21T20:59:36.134Z,23.33
2022-10-21T21:02:03.376Z,45.30
2022-10-21T21:04:30.583Z,56.88
2022-10-21T21:06:57.818Z,28.10
2022-10-21T21:12:13.066Z,25.85
2022-10-21T21:14:40.467Z,23.98
2022-10-21T21:17:07.834Z,24.30
2022-10-21T21:19:35.454Z,23.70
2022-10-21T21:22:03.811Z,24.25
2022-10-21T21:24:31.235Z,23.98
2022-10-21T21:26:58.473Z,23.30
2022-10-21T21:29:25.711Z,24.75
2022-10-21T21:31:52.995Z,23.60
2022-10-21T21:34:20.203Z,26.00
2022-10-21T21:36:47.476Z,25.05
2022-10-21T21:41:46.901Z,26.67
2022-10-21T21:44:14.335Z,28.55
2022-10-21T21:46:41.604Z,26.88
2022-10-21T21:49:08.823Z,26.65
2022-10-21T21:51:36.715Z,27.48
2022-10-21T21:54:04.681Z,29.67
2022-10-21T21:56:31.918Z,28.95
2022-10-21T21:58:59.309Z,28.67
2022-10-21T22:01:28.088Z,29.42
2022-10-21T22:03:55.749Z,29.10
2022-10-21T22:08:57.148Z,31.02
2022-10-21T22:11:25.543Z,30.40
2022-10-21T22:13:52.986Z,30.17
2022-10-21T22:16:22.201Z,31.48
2022-10-21T22:18:49.661Z,30.88
2022-10-21T22:21:18.288Z,33.17
2022-10-21T22:23:45.732Z,48.30
2022-10-21T22:26:14.278Z,33.05
2022-10-21T22:28:41.960Z,30.33
2022-10-21T22:31:13.617Z,30.42
2022-10-21T22:36:08.194Z,28.10
2022-10-21T22:38:35.609Z,28.67
2022-10-21T22:41:05.217Z,31.95
2022-10-21T22:46:09.614Z,28.77
2022-10-21T22:48:48.564Z,29.25
2022-10-21T22:51:15.807Z,28.70
2022-10-21T22:53:43.035Z,28.08
2022-10-21T22:56:10.268Z,29.27
2022-10-21T22:58:37.457Z,28.73
2022-10-21T23:01:08.652Z,28.08
2022-10-21T23:03:36.700Z,29.17
2022-10-21T23:06:03.929Z,30.00
2022-10-21T23:08:31.328Z,29.88
2022-10-21T23:10:58.999Z,31.17
2022-10-21T23:13:26.273Z,28.45
2022-10-21T23:15:53.527Z,29.05
2022-10-21T23:18:20.808Z,28.92
2022-10-21T23:20:48.036Z,27.65
2022-10-21T23:23:15.223Z,27.60
2022-10-21T23:25:42.525Z,29.15
2022-10-21T23:28:10.240Z,29.48
2022-10-21T23:30:38.386Z,29.23
2022-10-21T23:33:05.640Z,30.75
2022-10-21T23:35:33.036Z,29.80
2022-10-21T23:38:00.443Z,31.58
2022-10-21T23:40:27.956Z,30.75
2022-10-21T23:42:55.338Z,32.67
2022-10-21T23:45:22.634Z,31.15
2022-10-21T23:47:49.881Z,30.63
2022-10-21T23:50:17.252Z,30.50
2022-10-21T23:52:44.519Z,29.50
2022-10-21T23:55:11.820Z,30.17
2022-10-21T23:57:39.392Z,31.42
